Time;durP1;ratioP1;P1;durP2;ratioP2;P2;SDS_P1;SDS_P2;PMS_P1;PMS_P2;Temp;Humidity;BMP_temperature;BMP_pressure;BME280_temperature;BME280_humidity;BME280_pressure;Samples;Min_cycle;Max_cycle;Signal;HPM_P1;HPM_P2
2021/10/21 00:07:48;;;;;;;0.63;0.20;;;14.30;90.80;;;;;;4602297;31;20144;-89
2021/10/21 00:10:27;;;;;;;1.23;0.73;;;14.30;90.80;;;;;;4581998;31;20060;-87
2021/10/21 00:13:00;;;;;;;1.27;0.90;;;14.40;90.90;;;;;;4545547;31;20054;-92
2021/10/21 00:15:30;;;;;;;1.73;1.15;;;14.40;90.80;;;;;;4561272;31;20057;-86
2021/10/21 00:18:03;;;;;;;1.88;1.20;;;14.50;90.80;;;;;;4564489;31;20403;-86
2021/10/21 00:20:32;;;;;;;2.55;1.35;;;14.50;90.70;;;;;;4552418;31;20314;-88
2021/10/21 00:23:18;;;;;;;2.25;1.50;;;14.50;90.70;;;;;;4534887;31;20054;-90
2021/10/21 00:25:46;;;;;;;2.80;1.60;;;14.50;90.60;;;;;;4557162;31;20053;-89
2021/10/21 00:28:30;;;;;;;2.92;1.33;;;14.60;90.60;;;;;;4553723;31;20508;-91
2021/10/21 00:31:04;;;;;;;2.35;1.33;;;14.60;90.70;;;;;;4611842;30;20055;-90
2021/10/21 00:33:33;;;;;;;3.25;1.27;;;14.50;90.70;;;;;;4629817;30;20670;-89
2021/10/21 00:36:14;;;;;;;1.42;1.05;;;14.50;90.70;;;;;;4624994;30;20242;-91
2021/10/21 00:38:55;;;;;;;1.40;1.10;;;14.50;90.80;;;;;;4672825;30;20104;-90
2021/10/21 00:41:21;;;;;;;1.73;1.00;;;14.50;90.90;;;;;;4706366;30;20591;-87
2021/10/21 00:43:47;;;;;;;1.70;1.10;;;14.50;90.90;;;;;;4705529;30;20135;-89
2021/10/21 00:46:15;;;;;;;2.47;1.35;;;14.60;91.00;;;;;;4717186;30;20044;-87
2021/10/21 00:48:42;;;;;;;3.63;1.73;;;14.50;91.00;;;;;;4806347;29;20049;-88
2021/10/21 00:51:13;;;;;;;3.33;1.70;;;14.60;91.00;;;;;;4794114;29;20049;-88
2021/10/21 00:53:40;;;;;;;4.10;1.70;;;14.50;90.90;;;;;;4807773;29;20072;-87
2021/10/21 00:56:12;;;;;;;3.72;2.20;;;14.50;91.00;;;;;;4837689;29;20121;-88
2021/10/21 00:58:40;;;;;;;5.45;2.17;;;14.60;91.00;;;;;;4839732;29;20048;-88
2021/10/21 01:01:06;;;;;;;4.10;1.98;;;14.70;90.90;;;;;;4847688;29;20041;-88
2021/10/21 01:04:21;;;;;;;4.55;2.17;;;14.60;90.90;;;;;;4863665;29;20037;-88
2021/10/21 01:06:58;;;;;;;6.47;2.22;;;14.70;90.90;;;;;;4820490;29;20054;-90
2021/10/21 01:13:49;;;;;;;3.85;2.10;;;14.80;90.80;;;;;;4767109;30;20108;-89
2021/10/21 01:19:58;;;;;;;2.70;1.80;;;14.80;90.60;;;;;;4646956;30;20065;-91
2021/10/21 01:23:14;;;;;;;3.58;1.60;;;14.90;90.40;;;;;;4600252;31;20539;-88
2021/10/21 01:35:26;;;;;;;2.25;1.33;;;14.80;89.30;;;;;;4547523;31;20242;-90
2021/10/21 01:37:58;;;;;;;2.55;1.40;;;14.80;89.20;;;;;;4517783;31;20059;-84
2021/10/21 01:40:29;;;;;;;3.35;1.33;;;14.80;89.00;;;;;;4516309;31;20062;-84
2021/10/21 01:42:58;;;;;;;2.10;1.30;;;14.70;88.90;;;;;;4513478;31;20050;-86
2021/10/21 01:45:43;;;;;;;2.53;1.20;;;14.60;88.90;;;;;;4517227;31;20063;-86
2021/10/21 01:48:19;;;;;;;1.83;0.85;;;14.40;89.20;;;;;;4581891;31;20104;-86
2021/10/21 01:51:13;;;;;;;4.00;1.30;;;14.20;89.20;;;;;;4558248;31;20045;-89
2021/10/21 01:54:27;;;;;;;1.77;0.85;;;13.90;90.00;;;;;;4617411;30;20077;-88
2021/10/21 01:56:56;;;;;;;2.38;0.85;;;13.70;90.20;;;;;;4672382;30;20061;-88
2021/10/21 01:59:45;;;;;;;0.80;0.60;;;13.50;90.30;;;;;;4702051;30;20060;-93
2021/10/21 02:02:53;;;;;;;1.10;0.50;;;13.30;90.40;;;;;;4765696;30;20063;-90
2021/10/21 02:05:25;;;;;;;0.80;0.52;;;13.20;90.40;;;;;;4762640;29;20049;-86
2021/10/21 02:12:31;;;;;;;0.50;0.32;;;13.10;90.50;;;;;;4747722;30;20052;-87
2021/10/21 02:15:26;;;;;;;0.47;0.40;;;13.00;90.50;;;;;;4702667;30;20064;-91
2021/10/21 02:37:25;;;;;;;0.75;0.30;;;12.70;90.30;;;;;;4661689;30;20119;-87
2021/10/21 02:40:03;;;;;;;1.88;0.60;;;12.70;90.20;;;;;;4644240;30;20826;-86
2021/10/21 02:42:53;;;;;;;1.08;0.38;;;12.80;90.10;;;;;;4609604;30;20061;-89
2021/10/21 02:45:53;;;;;;;1.55;0.60;;;12.80;90.00;;;;;;4624497;30;20059;-89
2021/10/21 02:49:11;;;;;;;0.63;0.40;;;12.80;89.80;;;;;;4573914;31;20064;-87
2021/10/21 02:52:30;;;;;;;0.75;0.30;;;12.90;89.60;;;;;;4546901;31;20049;-88
2021/10/21 02:54:46;;;;;;;0.52;0.30;;;12.80;89.40;;;;;;4552127;31;20052;-86
2021/10/21 02:57:12;;;;;;;1.67;0.52;;;12.80;89.10;;;;;;4545510;31;20125;-89
2021/10/21 02:59:53;;;;;;;3.08;0.32;;;12.80;89.60;;;;;;4539733;31;20057;-88
2021/10/21 03:06:39;;;;;;;2.60;0.50;;;12.90;88.50;;;;;;4543027;31;20054;-87
2021/10/21 03:12:51;;;;;;;2.05;0.60;;;12.90;87.80;;;;;;4530875;31;20133;-87
2021/10/21 03:15:53;;;;;;;1.70;0.50;;;13.00;87.70;;;;;;4532577;31;20175;-90
2021/10/21 03:22:23;;;;;;;2.17;0.60;;;12.90;87.50;;;;;;4515475;31;20153;-87
2021/10/21 03:28:59;;;;;;;1.30;0.50;;;12.70;88.10;;;;;;4572538;31;20068;-91
2021/10/21 03:32:56;;;;;;;0.22;0.22;;;12.60;88.20;;;;;;4565580;31;20784;-91
2021/10/21 03:35:22;;;;;;;1.45;0.50;;;12.50;88.40;;;;;;4559274;31;20045;-88
2021/10/21 03:42:47;;;;;;;1.92;0.50;;;12.60;88.50;;;;;;4546767;31;20110;-86
2021/10/21 03:57:32;;;;;;;0.50;0.40;;;12.60;88.50;;;;;;4530639;31;20177;-89
2021/10/21 04:08:42;;;;;;;2.20;0.50;;;12.50;88.40;;;;;;4534597;31;20081;-92
2021/10/21 04:27:03;;;;;;;1.48;0.65;;;12.30;88.90;;;;;;4639539;30;20086;-89
2021/10/21 04:29:33;;;;;;;1.42;0.40;;;12.20;89.20;;;;;;4671601;30;20104;-88
2021/10/21 04:32:01;;;;;;;0.82;0.38;;;12.10;89.30;;;;;;4701114;30;20053;-86
2021/10/21 04:34:35;;;;;;;2.97;0.63;;;12.10;89.50;;;;;;4741526;30;20047;-87
2021/10/21 04:37:02;;;;;;;1.50;0.50;;;12.00;89.70;;;;;;4752614;30;20051;-85
2021/10/21 04:39:27;;;;;;;1.23;0.40;;;12.10;89.90;;;;;;4753864;30;20071;-85
2021/10/21 04:41:53;;;;;;;1.38;0.52;;;12.00;90.00;;;;;;4743573;30;20052;-84
2021/10/21 04:44:19;;;;;;;1.90;0.30;;;12.00;90.10;;;;;;4783362;30;20096;-85
2021/10/21 04:46:45;;;;;;;1.35;0.65;;;11.90;90.10;;;;;;4786834;30;20080;-85
2021/10/21 04:49:11;;;;;;;1.20;0.50;;;12.00;90.20;;;;;;4786136;30;20047;-84
2021/10/21 04:51:37;;;;;;;1.35;0.40;;;11.90;90.20;;;;;;4782213;30;20039;-85
2021/10/21 04:54:06;;;;;;;1.60;0.40;;;11.90;90.20;;;;;;4785124;30;20079;-87
2021/10/21 04:56:32;;;;;;;0.82;0.25;;;11.90;90.20;;;;;;4768297;29;20078;-85
2021/10/21 04:58:58;;;;;;;1.38;0.40;;;12.00;90.30;;;;;;4808516;29;20038;-87
2021/10/21 05:01:23;;;;;;;0.55;0.40;;;11.90;90.50;;;;;;4806426;29;20054;-85
2021/10/21 05:03:50;;;;;;;0.25;0.25;;;12.00;90.30;;;;;;4825761;29;20038;-86
2021/10/21 05:06:16;;;;;;;0.88;0.28;;;12.00;90.40;;;;;;4813012;29;20038;-87
2021/10/21 05:08:42;;;;;;;0.85;0.40;;;11.90;90.40;;;;;;4810090;29;20040;-87
2021/10/21 05:11:08;;;;;;;0.57;0.28;;;11.90;90.40;;;;;;4810254;29;20169;-87
2021/10/21 05:13:34;;;;;;;0.95;0.30;;;11.90;90.40;;;;;;4825384;29;20049;-86
2021/10/21 05:16:00;;;;;;;0.22;0.20;;;11.90;90.40;;;;;;4810165;29;20565;-86
2021/10/21 05:18:25;;;;;;;0.60;0.20;;;11.90;90.40;;;;;;4809885;29;20064;-87
2021/10/21 05:20:54;;;;;;;0.50;0.30;;;12.00;90.50;;;;;;4809905;29;20133;-87
2021/10/21 05:23:19;;;;;;;0.68;0.30;;;11.90;90.40;;;;;;4810340;29;20038;-85
2021/10/21 05:25:46;;;;;;;0.20;0.20;;;11.90;90.50;;;;;;4810414;29;20049;-86
2021/10/21 05:28:13;;;;;;;1.25;0.38;;;12.00;90.50;;;;;;4841048;29;20049;-85
2021/10/21 05:30:41;;;;;;;0.17;0.10;;;11.90;90.50;;;;;;4878189;29;20413;-85
2021/10/21 05:33:06;;;;;;;0.52;0.25;;;11.90;90.60;;;;;;4863989;29;20531;-83
2021/10/21 05:35:32;;;;;;;0.25;0.13;;;11.90;90.60;;;;;;4863115;29;20071;-83
2021/10/21 05:37:58;;;;;;;0.30;0.20;;;11.80;90.60;;;;;;4880864;29;20048;-83
2021/10/21 05:40:24;;;;;;;1.13;0.30;;;11.90;90.70;;;;;;4871757;29;20053;-84
2021/10/21 05:42:53;;;;;;;0.43;0.30;;;11.80;90.60;;;;;;4874269;29;20069;-86
2021/10/21 05:45:19;;;;;;;0.60;0.35;;;11.80;90.70;;;;;;4865474;29;20064;-84
2021/10/21 05:48:35;;;;;;;3.17;0.52;;;11.80;90.70;;;;;;4869270;29;20076;-91
2021/10/21 05:51:11;;;;;;;0.60;0.60;;;11.80;90.70;;;;;;4806428;29;20069;-89
2021/10/21 05:53:37;;;;;;;0.60;0.40;;;11.70;90.70;;;;;;4787977;29;20070;-86
2021/10/21 05:56:03;;;;;;;0.93;0.40;;;11.60;90.70;;;;;;4789432;29;20155;-86
2021/10/21 05:58:29;;;;;;;0.45;0.40;;;11.50;90.70;;;;;;4771696;29;20043;-86
2021/10/21 06:00:55;;;;;;;0.20;0.20;;;11.40;90.80;;;;;;4770940;29;20065;-86
2021/10/21 06:03:21;;;;;;;0.20;0.20;;;11.40;90.90;;;;;;4785939;29;20486;-88
2021/10/21 06:05:49;;;;;;;0.10;0.10;;;11.20;90.90;;;;;;4771385;29;20042;-87
2021/10/21 06:08:15;;;;;;;0.17;0.17;;;11.10;91.00;;;;;;4771156;29;20079;-87
2021/10/21 06:10:40;;;;;;;0.30;0.20;;;11.00;91.00;;;;;;4785919;29;20067;-88
2021/10/21 06:13:06;;;;;;;0.35;0.30;;;10.90;91.00;;;;;;4771152;30;20463;-85
2021/10/21 06:15:49;;;;;;;1.17;0.30;;;10.90;91.10;;;;;;4786840;29;20043;-89
2021/10/21 06:18:37;;;;;;;0.55;0.17;;;10.80;91.40;;;;;;4767307;30;20465;-87
2021/10/21 06:21:33;;;;;;;0.10;0.10;;;10.90;91.10;;;;;;4767221;30;20047;-84
2021/10/21 06:24:40;;;;;;;0.25;0.10;;;10.80;91.10;;;;;;4748034;30;20040;-87
2021/10/21 06:27:56;;;;;;;0.10;0.10;;;10.80;91.10;;;;;;4674099;30;20641;-87
2021/10/21 06:31:11;;;;;;;0.20;0.15;;;10.70;91.10;;;;;;4679257;30;20085;-88
2021/10/21 06:33:40;;;;;;;0.73;0.20;;;10.80;91.10;;;;;;4664936;30;20113;-87
2021/10/21 06:36:06;;;;;;;0.40;0.30;;;10.90;91.10;;;;;;4666462;30;20570;-83
2021/10/21 06:39:02;;;;;;;1.58;0.22;;;10.80;91.00;;;;;;4662802;30;20229;-87
2021/10/21 06:41:39;;;;;;;0.20;0.20;;;10.80;91.00;;;;;;4629595;30;20119;-89
2021/10/21 06:44:06;;;;;;;0.32;0.20;;;10.90;91.30;;;;;;4619415;30;20074;-82
2021/10/21 06:46:35;;;;;;;1.42;0.20;;;10.90;91.00;;;;;;4632372;30;20047;-87
2021/10/21 06:49:09;;;;;;;0.38;0.32;;;10.80;91.00;;;;;;4600209;31;20504;-84
2021/10/21 06:51:35;;;;;;;0.82;0.22;;;10.80;91.00;;;;;;4589735;31;20114;-79
2021/10/21 06:55:14;;;;;;;1.00;0.38;;;10.90;91.00;;;;;;4602367;30;20067;-84
2021/10/21 06:57:22;;;;;;;1.23;0.20;;;10.90;91.00;;;;;;4628068;30;20505;-84
2021/10/21 06:59:48;;;;;;;0.80;0.20;;;10.90;91.00;;;;;;4631581;30;20059;-88
2021/10/21 07:02:14;;;;;;;0.77;0.20;;;10.80;90.90;;;;;;4618239;31;20054;-86
2021/10/21 07:08:40;;;;;;;0.45;0.30;;;11.00;90.90;;;;;;4681497;30;20048;-88
2021/10/21 07:11:21;;;;;;;1.80;0.30;;;11.00;90.90;;;;;;4653466;30;20141;-85
2021/10/21 07:13:52;;;;;;;1.55;0.38;;;11.00;90.90;;;;;;4691731;30;20179;-82
2021/10/21 07:16:26;;;;;;;0.93;0.30;;;11.00;90.80;;;;;;4685918;30;20525;-86
2021/10/21 07:18:51;;;;;;;0.70;0.30;;;10.90;90.80;;;;;;4726743;30;20039;-82
2021/10/21 07:21:18;;;;;;;0.98;0.35;;;11.00;90.90;;;;;;4742848;30;20465;-82
2021/10/21 07:27:34;;;;;;;0.70;0.30;;;11.00;90.90;;;;;;4771620;30;20627;-84
2021/10/21 07:30:39;;;;;;;0.70;0.30;;;11.10;90.90;;;;;;4742372;30;20055;-86
2021/10/21 07:33:08;;;;;;;0.52;0.20;;;11.10;90.80;;;;;;4744850;29;20076;-86
2021/10/21 07:35:34;;;;;;;0.20;0.20;;;11.10;90.80;;;;;;4810417;29;20091;-78
2021/10/21 07:38:01;;;;;;;0.50;0.20;;;11.10;90.80;;;;;;4826369;29;20057;-80
2021/10/21 07:40:27;;;;;;;1.67;0.50;;;11.20;90.80;;;;;;4892961;29;20052;-80
2021/10/21 07:42:52;;;;;;;0.82;0.57;;;11.10;90.70;;;;;;4885407;29;20049;-82
2021/10/21 07:45:19;;;;;;;1.60;0.32;;;11.20;90.70;;;;;;4866904;29;20045;-80
2021/10/21 07:47:55;;;;;;;1.00;0.30;;;11.20;90.70;;;;;;4884756;29;20032;-84
2021/10/21 07:50:21;;;;;;;0.70;0.32;;;11.20;90.60;;;;;;4874629;29;20404;-82
2021/10/21 07:57:13;;;;;;;2.13;0.60;;;11.40;90.60;;;;;;4770718;30;20040;-84
2021/10/21 08:03:09;;;;;;;2.05;0.40;;;11.10;90.60;;;;;;4722946;30;20451;-83
2021/10/21 08:05:35;;;;;;;4.20;0.70;;;11.30;90.60;;;;;;4708344;30;20067;-83
2021/10/21 08:08:24;;;;;;;1.42;0.40;;;11.30;90.60;;;;;;4701678;30;20045;-83
2021/10/21 08:10:50;;;;;;;1.63;0.57;;;11.30;90.50;;;;;;4729524;30;20065;-87
2021/10/21 08:13:16;;;;;;;2.25;0.73;;;11.30;90.70;;;;;;4702322;30;20041;-86
2021/10/21 08:19:09;;;;;;;2.63;0.80;;;11.30;90.30;;;;;;4673857;30;20521;-84
2021/10/21 08:21:37;;;;;;;0.98;0.50;;;11.50;90.30;;;;;;4682723;30;20046;-86
2021/10/21 08:24:11;;;;;;;4.63;1.00;;;11.50;90.10;;;;;;4676127;30;20038;-81
2021/10/21 08:26:37;;;;;;;3.92;0.63;;;11.60;90.00;;;;;;4673330;30;20531;-84
2021/10/21 08:29:11;;;;;;;3.78;1.20;;;11.50;90.00;;;;;;4683134;30;20554;-85
2021/10/21 08:31:37;;;;;;;3.00;1.00;;;11.60;89.80;;;;;;4695358;30;20041;-81
2021/10/21 08:34:04;;;;;;;2.40;0.65;;;11.50;89.50;;;;;;4774303;29;20048;-83
2021/10/21 08:36:31;;;;;;;1.50;0.60;;;11.50;89.50;;;;;;4833028;29;20070;-84
2021/10/21 08:38:57;;;;;;;2.10;0.70;;;11.60;89.30;;;;;;4812098;29;20041;-82
2021/10/21 08:41:24;;;;;;;1.83;0.52;;;11.50;89.10;;;;;;4826988;29;20053;-81
2021/10/21 08:43:58;;;;;;;1.40;0.70;;;11.60;89.20;;;;;;4834647;29;20133;-86
2021/10/21 08:46:26;;;;;;;1.55;0.60;;;11.60;89.20;;;;;;4781029;29;20042;-85
2021/10/21 08:49:01;;;;;;;0.75;0.60;;;11.60;89.10;;;;;;4776229;29;20054;-80
2021/10/21 08:51:29;;;;;;;2.28;1.10;;;11.60;88.90;;;;;;4789078;29;20046;-81
2021/10/21 08:53:55;;;;;;;2.40;0.73;;;11.60;88.80;;;;;;4790167;29;20116;-82
2021/10/21 08:56:33;;;;;;;1.35;0.55;;;11.80;88.60;;;;;;4824910;29;20074;-88
2021/10/21 08:59:01;;;;;;;1.83;0.50;;;11.80;88.40;;;;;;4808043;29;20195;-81
2021/10/21 09:09:43;;;;;;;1.95;0.80;;;11.80;87.80;;;;;;4791260;29;20047;-82
2021/10/21 09:12:19;;;;;;;2.30;0.65;;;11.80;87.70;;;;;;4793452;29;20050;-88
2021/10/21 09:15:07;;;;;;;1.50;0.43;;;11.80;87.70;;;;;;4723272;30;20056;-84
2021/10/21 09:17:55;;;;;;;1.48;0.30;;;11.70;87.90;;;;;;4757046;29;20074;-87
2021/10/21 09:20:25;;;;;;;1.70;0.40;;;11.50;88.20;;;;;;4796390;29;20055;-82
2021/10/21 09:22:56;;;;;;;1.45;0.40;;;11.50;88.50;;;;;;4781391;29;20533;-81
2021/10/21 09:25:27;;;;;;;1.90;0.73;;;11.50;88.60;;;;;;4805169;29;20081;-83
2021/10/21 09:27:56;;;;;;;3.45;0.57;;;11.50;88.70;;;;;;4803783;29;20525;-80
2021/10/21 09:30:32;;;;;;;1.13;0.40;;;11.60;88.80;;;;;;4804155;29;20062;-83
2021/10/21 09:33:06;;;;;;;0.77;0.38;;;11.50;89.40;;;;;;4790765;29;20038;-85
2021/10/21 09:35:37;;;;;;;1.88;0.52;;;11.40;88.90;;;;;;4807107;29;20051;-84
2021/10/21 09:38:03;;;;;;;0.40;0.30;;;11.40;89.00;;;;;;4807835;29;20051;-82
2021/10/21 09:40:58;;;;;;;0.68;0.50;;;11.30;89.20;;;;;;4802571;29;20563;-91
2021/10/21 09:43:32;;;;;;;1.40;0.50;;;11.30;89.30;;;;;;4780157;29;20055;-81
2021/10/21 09:45:59;;;;;;;1.63;0.43;;;11.30;89.40;;;;;;4832756;29;20053;-80
2021/10/21 09:48:25;;;;;;;1.25;0.55;;;11.20;89.50;;;;;;4862313;29;20037;-79
2021/10/21 09:50:50;;;;;;;1.08;0.38;;;11.10;89.60;;;;;;4861908;29;20437;-79
2021/10/21 09:53:20;;;;;;;1.27;0.30;;;11.10;89.80;;;;;;4877467;29;20093;-78
2021/10/21 09:55:52;;;;;;;1.67;0.43;;;11.00;89.80;;;;;;4861837;29;20064;-80
2021/10/21 09:58:23;;;;;;;0.75;0.30;;;11.00;90.00;;;;;;4861579;29;20443;-80
2021/10/21 10:00:50;;;;;;;0.95;0.40;;;11.00;90.10;;;;;;4861579;29;20140;-81
2021/10/21 10:03:19;;;;;;;1.20;0.30;;;11.00;90.10;;;;;;4861817;29;20174;-79
2021/10/21 10:05:52;;;;;;;0.20;0.20;;;10.90;90.10;;;;;;4877211;29;20057;-80
2021/10/21 10:08:20;;;;;;;2.05;0.50;;;11.00;90.30;;;;;;4861500;29;20045;-81
2021/10/21 10:10:49;;;;;;;0.38;0.35;;;10.90;90.30;;;;;;4861902;29;20049;-81
2021/10/21 10:13:16;;;;;;;0.88;0.30;;;10.80;90.30;;;;;;4862228;29;20051;-79
2021/10/21 10:15:45;;;;;;;0.20;0.20;;;10.70;90.40;;;;;;4878092;29;20044;-80
2021/10/21 10:18:20;;;;;;;2.55;0.40;;;10.80;90.40;;;;;;4878315;29;20041;-80
2021/10/21 10:20:55;;;;;;;1.23;0.45;;;10.80;90.50;;;;;;4878502;29;20073;-81
2021/10/21 10:23:22;;;;;;;1.02;0.30;;;10.80;90.50;;;;;;4878172;29;20108;-82
2021/10/21 10:25:52;;;;;;;1.30;0.47;;;11.00;90.50;;;;;;4877494;29;20043;-82
2021/10/21 10:28:17;;;;;;;2.63;0.20;;;11.00;90.40;;;;;;4861878;29;20556;-81
2021/10/21 10:30:47;;;;;;;0.90;0.30;;;11.10;90.30;;;;;;4861885;29;20041;-84
2021/10/21 10:33:37;;;;;;;2.70;0.50;;;11.20;90.30;;;;;;4878308;29;20048;-82
2021/10/21 10:36:23;;;;;;;1.08;0.30;;;11.20;90.20;;;;;;4878616;29;20124;-81
2021/10/21 10:38:50;;;;;;;0.32;0.30;;;11.30;90.20;;;;;;4878057;29;20460;-83
2021/10/21 10:41:43;;;;;;;2.00;0.57;;;11.30;90.20;;;;;;4878112;29;20045;-81
2021/10/21 10:44:11;;;;;;;1.23;0.47;;;11.30;90.20;;;;;;4861632;29;20041;-80
2021/10/21 10:46:53;;;;;;;0.68;0.30;;;11.40;90.20;;;;;;4878096;29;20044;-82
2021/10/21 10:49:41;;;;;;;1.85;0.52;;;11.40;90.20;;;;;;4858422;29;20201;-81
2021/10/21 10:52:10;;;;;;;0.55;0.40;;;11.40;90.20;;;;;;4861367;29;20140;-83
2021/10/21 10:54:56;;;;;;;1.02;0.45;;;11.40;90.10;;;;;;4859815;29;20132;-81
2021/10/21 10:57:51;;;;;;;3.40;0.45;;;11.70;90.20;;;;;;4845508;29;20037;-81
2021/10/21 11:00:39;;;;;;;2.38;0.55;;;11.70;90.10;;;;;;4860871;29;20060;-81
2021/10/21 11:03:06;;;;;;;1.52;0.50;;;11.70;90.10;;;;;;4877814;29;20041;-83
2021/10/21 11:05:57;;;;;;;2.38;0.68;;;11.80;90.00;;;;;;4876995;29;20064;-90
2021/10/21 11:08:53;;;;;;;0.90;0.47;;;11.80;90.00;;;;;;4869949;29;20049;-84
2021/10/21 11:11:57;;;;;;;1.85;0.60;;;11.80;90.20;;;;;;4860724;29;20500;-85
2021/10/21 11:14:43;;;;;;;0.93;0.40;;;11.90;89.90;;;;;;4877302;29;20124;-86
2021/10/21 11:17:12;;;;;;;3.15;0.70;;;11.80;90.00;;;;;;4848324;29;20108;-83
2021/10/21 11:20:07;;;;;;;2.17;0.70;;;11.90;90.00;;;;;;4881685;29;20063;-85
2021/10/21 11:22:38;;;;;;;2.25;0.60;;;11.80;90.10;;;;;;4864726;29;20045;-83
2021/10/21 11:25:12;;;;;;;2.15;0.60;;;12.00;90.10;;;;;;4880279;29;20044;-88
2021/10/21 11:27:57;;;;;;;2.90;0.70;;;12.00;90.10;;;;;;4842014;29;20121;-88
2021/10/21 11:30:26;;;;;;;1.33;0.50;;;12.20;90.00;;;;;;4824099;29;20055;-84
2021/10/21 11:33:57;;;;;;;0.80;0.40;;;12.10;89.80;;;;;;4825367;29;20154;-90
2021/10/21 11:36:23;;;;;;;1.80;0.37;;;12.20;89.70;;;;;;4770158;30;20039;-86
2021/10/21 11:39:13;;;;;;;1.75;0.40;;;12.10;89.70;;;;;;4738099;30;20287;-84
2021/10/21 11:41:44;;;;;;;2.72;0.93;;;12.10;89.80;;;;;;4739467;30;20071;-87
2021/10/21 11:44:13;;;;;;;1.17;0.38;;;12.10;89.90;;;;;;4737165;30;20134;-87
2021/10/21 11:46:58;;;;;;;1.08;0.30;;;12.20;89.90;;;;;;4720950;30;20479;-87
2021/10/21 11:49:33;;;;;;;1.70;0.30;;;12.50;89.70;;;;;;4704738;30;20049;-86
2021/10/21 11:52:36;;;;;;;0.50;0.25;;;12.50;89.10;;;;;;4681917;30;20120;-82
2021/10/21 11:55:03;;;;;;;1.58;0.52;;;12.60;88.60;;;;;;4705513;30;20124;-85
2021/10/21 11:57:35;;;;;;;1.67;0.30;;;12.50;88.40;;;;;;4670415;30;20054;-86
2021/10/21 12:00:18;;;;;;;0.30;0.30;;;12.40;87.80;;;;;;4637757;30;20046;-83
2021/10/21 12:03:19;;;;;;;0.52;0.20;;;12.00;88.00;;;;;;4705039;30;20057;-89
2021/10/21 12:05:59;;;;;;;0.93;0.10;;;11.50;88.90;;;;;;4692353;30;20053;-85
2021/10/21 12:08:25;;;;;;;0.22;0.22;;;11.10;90.00;;;;;;4702559;30;20049;-84
2021/10/21 12:10:56;;;;;;;0.45;0.22;;;10.70;90.30;;;;;;4744974;30;20483;-86
2021/10/21 12:13:27;;;;;;;0.95;0.30;;;10.50;90.50;;;;;;4769795;30;20040;-82
2021/10/21 12:16:02;;;;;;;0.73;0.20;;;10.20;90.70;;;;;;4786706;30;20043;-88
2021/10/21 12:18:31;;;;;;;1.17;0.25;;;10.10;90.80;;;;;;4786572;30;20050;-87
2021/10/21 12:21:06;;;;;;;0.57;0.20;;;10.00;90.80;;;;;;4803231;29;20091;-87
2021/10/21 12:23:34;;;;;;;0.20;0.20;;;10.10;90.90;;;;;;4767276;30;20043;-85
2021/10/21 12:26:05;;;;;;;0.45;0.28;;;10.10;90.90;;;;;;4774357;29;20494;-84
2021/10/21 12:28:45;;;;;;;0.15;0.10;;;9.90;90.90;;;;;;4789952;29;20054;-84
2021/10/21 12:31:31;;;;;;;0.88;0.20;;;10.10;91.20;;;;;;4790547;29;20072;-81
2021/10/21 12:34:01;;;;;;;0.65;0.10;;;9.90;90.90;;;;;;4775044;29;20062;-83
2021/10/21 12:36:45;;;;;;;0.20;0.10;;;10.00;90.90;;;;;;4789449;29;20501;-83
2021/10/21 12:39:14;;;;;;;0.22;0.20;;;10.00;90.90;;;;;;4804466;29;20476;-81
2021/10/21 12:41:59;;;;;;;0.45;0.10;;;10.00;90.90;;;;;;4825103;29;20046;-81
2021/10/21 12:44:49;;;;;;;0.10;0.10;;;10.00;90.90;;;;;;4811736;29;20485;-84
2021/10/21 12:47:22;;;;;;;0.20;0.10;;;10.20;90.80;;;;;;4827814;29;20137;-81
2021/10/21 12:50:33;;;;;;;0.20;0.10;;;10.20;90.70;;;;;;4798229;29;20034;-83
2021/10/21 12:53:28;;;;;;;0.10;0.10;;;10.20;90.70;;;;;;4800189;29;20149;-84
2021/10/21 12:56:47;;;;;;;0.68;0.10;;;10.20;90.70;;;;;;4758433;29;20063;-86
2021/10/21 13:03:13;;;;;;;0.38;0.10;;;10.30;90.70;;;;;;4768632;30;20051;-88
2021/10/21 13:05:40;;;;;;;0.32;0.10;;;10.40;90.60;;;;;;4715355;30;20045;-82
2021/10/21 13:08:07;;;;;;;0.52;0.10;;;10.60;90.50;;;;;;4731745;30;20044;-83
2021/10/21 13:10:41;;;;;;;0.00;0.00;;;10.60;90.30;;;;;;4733292;30;20419;-84
2021/10/21 13:13:07;;;;;;;0.55;0.10;;;10.50;90.20;;;;;;4732822;30;20064;-84
2021/10/21 13:15:33;;;;;;;0.50;0.10;;;10.60;90.20;;;;;;4720616;30;20521;-83
2021/10/21 13:21:46;;;;;;;0.40;0.10;;;10.50;90.30;;;;;;4687708;30;20141;-85
2021/10/21 13:24:12;;;;;;;0.05;0.05;;;10.40;90.40;;;;;;4665919;30;20046;-81
2021/10/21 13:26:41;;;;;;;0.22;0.10;;;10.40;90.40;;;;;;4676917;30;20540;-82
2021/10/21 13:29:07;;;;;;;0.20;0.13;;;10.30;90.50;;;;;;4703483;30;20516;-82
2021/10/21 13:31:46;;;;;;;0.65;0.25;;;10.30;90.50;;;;;;4750373;30;20060;-85
2021/10/21 13:35:19;;;;;;;1.05;0.25;;;10.30;90.60;;;;;;4735609;30;20044;-90
2021/10/21 13:37:45;;;;;;;1.88;0.17;;;10.40;90.60;;;;;;4735489;30;20091;-85
2021/10/21 13:40:11;;;;;;;0.20;0.10;;;10.40;90.50;;;;;;4736659;30;20051;-83
2021/10/21 13:42:37;;;;;;;0.50;0.20;;;10.50;90.40;;;;;;4735754;30;20127;-84
2021/10/21 13:45:03;;;;;;;3.55;0.30;;;10.50;90.40;;;;;;4736317;30;20127;-82
2021/10/21 13:47:33;;;;;;;1.00;0.20;;;10.50;90.40;;;;;;4721838;30;20084;-87
2021/10/21 13:49:59;;;;;;;0.43;0.28;;;10.40;90.40;;;;;;4736021;30;20066;-85
2021/10/21 13:53:28;;;;;;;1.00;0.10;;;10.40;90.50;;;;;;4768280;29;20046;-89
2021/10/21 13:55:54;;;;;;;0.10;0.10;;;10.40;90.50;;;;;;4788585;29;20058;-85
2021/10/21 13:58:19;;;;;;;0.88;0.20;;;10.40;90.50;;;;;;4829682;29;20045;-83
2021/10/21 14:00:56;;;;;;;0.20;0.20;;;10.30;90.50;;;;;;4877454;29;20045;-87
2021/10/21 14:03:22;;;;;;;0.43;0.20;;;10.30;90.60;;;;;;4862419;29;20033;-83
2021/10/21 14:06:17;;;;;;;0.10;0.10;;;10.20;90.60;;;;;;4861761;29;20037;-89
2021/10/21 14:08:44;;;;;;;1.40;0.35;;;10.40;90.70;;;;;;4860862;29;20416;-85
2021/10/21 14:11:10;;;;;;;0.65;0.30;;;10.30;90.70;;;;;;4863410;29;20048;-80
2021/10/21 14:14:02;;;;;;;0.50;0.22;;;10.30;90.70;;;;;;4863318;29;20041;-89
2021/10/21 14:16:28;;;;;;;0.40;0.20;;;10.40;90.70;;;;;;4844038;29;20096;-83
2021/10/21 16:13:20;;;;;;;1.08;0.40;;;9.90;90.30;;;;;;4915929;29;20056;-79
2021/10/21 16:15:46;;;;;;;2.95;0.52;;;9.80;90.20;;;;;;4916419;29;20066;-79
2021/10/21 16:18:12;;;;;;;1.98;0.40;;;9.80;90.20;;;;;;4916972;29;20410;-80
2021/10/21 16:28:12;;;;;;;2.25;0.57;;;9.70;90.20;;;;;;4742473;30;20040;-85
2021/10/21 16:30:42;;;;;;;2.15;0.40;;;9.60;90.20;;;;;;4737734;30;20505;-86
2021/10/21 16:33:08;;;;;;;2.05;0.70;;;9.60;90.20;;;;;;4754837;30;20067;-83
2021/10/21 16:35:35;;;;;;;1.70;0.40;;;9.50;90.20;;;;;;4754739;30;20436;-84
2021/10/21 16:38:02;;;;;;;1.45;0.40;;;9.60;90.20;;;;;;4753168;30;20051;-86
2021/10/21 16:40:28;;;;;;;2.75;0.77;;;9.50;90.10;;;;;;4719373;30;20064;-86
2021/10/21 16:43:16;;;;;;;1.90;0.45;;;9.60;90.10;;;;;;4717656;30;20064;-87
2021/10/21 16:45:51;;;;;;;0.95;0.60;;;9.60;90.00;;;;;;4685995;30;20049;-88
2021/10/21 16:48:24;;;;;;;2.17;0.50;;;9.60;90.00;;;;;;4655339;30;20041;-87
2021/10/21 16:50:50;;;;;;;2.97;0.70;;;9.60;90.00;;;;;;4667105;30;20056;-83
2021/10/21 16:53:16;;;;;;;2.60;0.73;;;9.40;90.00;;;;;;4683931;30;20180;-84
2021/10/21 16:55:48;;;;;;;0.50;0.38;;;9.40;90.00;;;;;;4701077;30;20037;-87
2021/10/21 16:58:21;;;;;;;1.77;0.43;;;9.40;90.00;;;;;;4712040;30;20060;-87
2021/10/21 17:00:52;;;;;;;1.95;0.40;;;9.30;90.00;;;;;;4713961;30;20907;-87
2021/10/21 17:03:20;;;;;;;1.95;0.30;;;9.20;90.00;;;;;;4750924;30;20067;-87
2021/10/21 17:05:46;;;;;;;1.42;0.52;;;9.30;90.00;;;;;;4736051;30;20064;-86
2021/10/21 17:08:11;;;;;;;0.88;0.32;;;9.30;90.00;;;;;;4735386;30;20543;-85
2021/10/21 17:10:37;;;;;;;1.52;0.47;;;9.30;90.00;;;;;;4744777;30;20088;-86
2021/10/21 17:13:08;;;;;;;1.95;0.30;;;9.20;90.00;;;;;;4775735;30;20104;-86
2021/10/21 17:16:03;;;;;;;1.10;0.20;;;9.10;90.00;;;;;;4783958;29;20128;-85
2021/10/21 17:18:35;;;;;;;0.70;0.30;;;9.00;90.00;;;;;;4791429;29;20593;-86
2021/10/21 17:21:05;;;;;;;1.42;0.30;;;9.00;90.10;;;;;;4745936;29;20067;-87
2021/10/21 17:23:33;;;;;;;1.13;0.20;;;8.90;90.10;;;;;;4789702;29;20092;-86
2021/10/21 17:26:25;;;;;;;1.00;0.40;;;8.90;90.10;;;;;;4826928;29;20120;-88
2021/10/21 17:28:56;;;;;;;1.98;0.30;;;8.80;90.10;;;;;;4810944;29;20052;-87
2021/10/21 17:31:27;;;;;;;1.00;0.50;;;8.70;90.10;;;;;;4810821;29;20241;-86
2021/10/21 17:33:56;;;;;;;0.75;0.30;;;8.90;90.20;;;;;;4830892;29;20038;-86
2021/10/21 20:19:10;;;;;;;0.63;0.20;;;6.80;81.20;;;;;;5151920;27;20138;-82
2021/10/21 20:21:35;;;;;;;0.70;0.20;;;6.80;82.40;;;;;;5097310;28;20036;-83
2021/10/21 20:24:01;;;;;;;0.10;0.10;;;6.80;84.40;;;;;;5096267;28;20108;-87
2021/10/21 20:26:27;;;;;;;0.10;0.10;;;6.70;86.20;;;;;;5095396;28;20039;-86
2021/10/21 20:28:52;;;;;;;0.40;0.13;;;6.80;87.70;;;;;;5095592;28;20048;-83
2021/10/21 20:31:18;;;;;;;0.10;0.10;;;6.80;88.80;;;;;;5094384;28;20067;-85
2021/10/21 20:34:12;;;;;;;0.10;0.10;;;6.80;89.60;;;;;;5093599;28;20051;-89